sensor_id;sensor_type;location;lat;lon;timestamp;pressure;altitude;pressure_sealevel;temperature;humidity
16331;BME280;8275;48.206;16.340;2023-02-17T00:01:29;100120.19;;;11.88;38.32
16331;BME280;8275;48.206;16.340;2023-02-17T00:03:59;100116.53;;;11.82;38.31
16331;BME280;8275;48.206;16.340;2023-02-17T00:06:29;100120.59;;;11.80;38.29
16331;BME280;8275;48.206;16.340;2023-02-17T00:08:58;100110.09;;;11.77;37.99
16331;BME280;8275;48.206;16.340;2023-02-17T00:11:29;100112.03;;;11.76;38.13
16331;BME280;8275;48.206;16.340;2023-02-17T00:13:58;100111.19;;;11.76;38.19
16331;BME280;8275;48.206;16.340;2023-02-17T00:16:27;100125.75;;;11.76;38.21
16331;BME280;8275;48.206;16.340;2023-02-17T00:18:58;100109.50;;;11.75;37.86
16331;BME280;8275;48.206;16.340;2023-02-17T00:21:29;100118.84;;;11.74;38.07
16331;BME280;8275;48.206;16.340;2023-02-17T00:23:59;100111.41;;;11.74;37.83
16331;BME280;8275;48.206;16.340;2023-02-17T00:26:29;100113.09;;;11.75;38.20
16331;BME280;8275;48.206;16.340;2023-02-17T00:28:57;100098.53;;;11.75;37.74
16331;BME280;8275;48.206;16.340;2023-02-17T00:31:26;100093.31;;;11.73;38.02
16331;BME280;8275;48.206;16.340;2023-02-17T00:33:55;100105.59;;;11.71;38.13
16331;BME280;8275;48.206;16.340;2023-02-17T00:36:25;100107.75;;;11.69;38.10
16331;BME280;8275;48.206;16.340;2023-02-17T00:38:56;100102.72;;;11.66;38.08
16331;BME280;8275;48.206;16.340;2023-02-17T00:41:26;100103.81;;;11.65;37.97
16331;BME280;8275;48.206;16.340;2023-02-17T00:43:56;100098.78;;;11.62;38.11
16331;BME280;8275;48.206;16.340;2023-02-17T00:46:25;100096.88;;;11.62;37.78
16331;BME280;8275;48.206;16.340;2023-02-17T00:48:54;100094.94;;;11.63;37.83
16331;BME280;8275;48.206;16.340;2023-02-17T00:51:24;100097.22;;;11.66;37.88
16331;BME280;8275;48.206;16.340;2023-02-17T00:53:53;100083.06;;;11.69;37.85
16331;BME280;8275;48.206;16.340;2023-02-17T00:56:21;100084.47;;;11.71;37.99
16331;BME280;8275;48.206;16.340;2023-02-17T00:58:50;100078.25;;;11.76;38.15
16331;BME280;8275;48.206;16.340;2023-02-17T01:01:19;100076.69;;;11.80;38.28
16331;BME280;8275;48.206;16.340;2023-02-17T01:03:48;100071.53;;;11.83;38.05
16331;BME280;8275;48.206;16.340;2023-02-17T01:06:23;100081.75;;;11.88;38.02
16331;BME280;8275;48.206;16.340;2023-02-17T01:08:52;100076.16;;;11.94;37.92
16331;BME280;8275;48.206;16.340;2023-02-17T01:11:22;100081.97;;;11.98;38.15
16331;BME280;8275;48.206;16.340;2023-02-17T01:13:51;100071.94;;;12.04;38.12
16331;BME280;8275;48.206;16.340;2023-02-17T01:16:24;100067.03;;;12.06;37.96
16331;BME280;8275;48.206;16.340;2023-02-17T01:18:53;100062.69;;;12.10;37.62
16331;BME280;8275;48.206;16.340;2023-02-17T01:21:24;100059.47;;;12.13;37.80
16331;BME280;8275;48.206;16.340;2023-02-17T01:23:56;100054.81;;;12.13;37.86
16331;BME280;8275;48.206;16.340;2023-02-17T01:26:28;100053.72;;;12.14;37.60
16331;BME280;8275;48.206;16.340;2023-02-17T01:28:57;100058.38;;;12.14;37.56
16331;BME280;8275;48.206;16.340;2023-02-17T01:31:27;100047.63;;;12.12;37.50
16331;BME280;8275;48.206;16.340;2023-02-17T01:33:59;100049.81;;;12.10;37.38
16331;BME280;8275;48.206;16.340;2023-02-17T01:36:27;100036.56;;;12.07;37.38
16331;BME280;8275;48.206;16.340;2023-02-17T01:38:56;100027.75;;;12.05;37.40
16331;BME280;8275;48.206;16.340;2023-02-17T01:41:26;100030.16;;;12.02;37.45
16331;BME280;8275;48.206;16.340;2023-02-17T01:44:13;100030.06;;;11.96;37.88
16331;BME280;8275;48.206;16.340;2023-02-17T01:46:45;100026.97;;;11.93;37.60
16331;BME280;8275;48.206;16.340;2023-02-17T01:49:28;100035.09;;;11.88;37.52
16331;BME280;8275;48.206;16.340;2023-02-17T01:52:05;100035.03;;;11.83;37.73
16331;BME280;8275;48.206;16.340;2023-02-17T01:54:39;100034.94;;;11.78;37.77
16331;BME280;8275;48.206;16.340;2023-02-17T01:57:09;100032.66;;;11.75;37.61
16331;BME280;8275;48.206;16.340;2023-02-17T01:59:39;100034.22;;;11.71;37.69
16331;BME280;8275;48.206;16.340;2023-02-17T02:02:10;100039.97;;;11.69;38.15
16331;BME280;8275;48.206;16.340;2023-02-17T02:04:43;100038.75;;;11.65;37.87
16331;BME280;8275;48.206;16.340;2023-02-17T02:07:17;100035.41;;;11.63;37.92
16331;BME280;8275;48.206;16.340;2023-02-17T02:09:51;100031.50;;;11.59;38.32
16331;BME280;8275;48.206;16.340;2023-02-17T02:12:23;100026.50;;;11.56;38.41
16331;BME280;8275;48.206;16.340;2023-02-17T02:14:53;100022.59;;;11.52;38.19
16331;BME280;8275;48.206;16.340;2023-02-17T02:17:33;100025.00;;;11.49;38.70
16331;BME280;8275;48.206;16.340;2023-02-17T02:20:41;100014.13;;;11.42;38.55
16331;BME280;8275;48.206;16.340;2023-02-17T02:27:28;100020.88;;;11.23;38.91
16331;BME280;8275;48.206;16.340;2023-02-17T02:30:43;100020.41;;;11.14;39.08
16331;BME280;8275;48.206;16.340;2023-02-17T02:33:24;100016.75;;;11.09;39.39
16331;BME280;8275;48.206;16.340;2023-02-17T02:36:01;100019.97;;;11.06;39.38
16331;BME280;8275;48.206;16.340;2023-02-17T02:38:39;100014.13;;;11.02;39.31
16331;BME280;8275;48.206;16.340;2023-02-17T02:41:13;100001.75;;;11.00;39.46
16331;BME280;8275;48.206;16.340;2023-02-17T02:43:43;100008.28;;;10.99;39.87
16331;BME280;8275;48.206;16.340;2023-02-17T02:46:11;100004.72;;;10.98;39.98
16331;BME280;8275;48.206;16.340;2023-02-17T02:48:41;99997.31;;;10.99;39.71
16331;BME280;8275;48.206;16.340;2023-02-17T02:51:31;99997.56;;;10.97;40.27
16331;BME280;8275;48.206;16.340;2023-02-17T02:54:21;100003.06;;;10.97;39.92
16331;BME280;8275;48.206;16.340;2023-02-17T02:57:17;100003.31;;;10.96;40.15
16331;BME280;8275;48.206;16.340;2023-02-17T02:59:59;100002.22;;;10.97;40.07
16331;BME280;8275;48.206;16.340;2023-02-17T03:02:39;100014.63;;;10.99;40.37
16331;BME280;8275;48.206;16.340;2023-02-17T03:05:18;100006.97;;;11.01;40.04
16331;BME280;8275;48.206;16.340;2023-02-17T03:07:57;100000.44;;;11.02;40.49
16331;BME280;8275;48.206;16.340;2023-02-17T03:10:27;100004.34;;;11.06;40.38
16331;BME280;8275;48.206;16.340;2023-02-17T03:12:56;100005.53;;;11.10;40.32
16331;BME280;8275;48.206;16.340;2023-02-17T03:15:29;100002.31;;;11.13;40.57
16331;BME280;8275;48.206;16.340;2023-02-17T03:18:00;100000.50;;;11.19;40.13
16331;BME280;8275;48.206;16.340;2023-02-17T03:20:35;99986.88;;;11.24;40.27
16331;BME280;8275;48.206;16.340;2023-02-17T03:23:05;99995.22;;;11.29;40.47
16331;BME280;8275;48.206;16.340;2023-02-17T03:25:34;99989.84;;;11.34;40.46
16331;BME280;8275;48.206;16.340;2023-02-17T03:28:02;99988.84;;;11.40;40.50
16331;BME280;8275;48.206;16.340;2023-02-17T03:30:31;99990.38;;;11.48;40.65
16331;BME280;8275;48.206;16.340;2023-02-17T03:33:00;99991.91;;;11.55;40.71
16331;BME280;8275;48.206;16.340;2023-02-17T03:35:29;99986.53;;;11.60;40.35
16331;BME280;8275;48.206;16.340;2023-02-17T03:37:58;99993.78;;;11.66;40.69
16331;BME280;8275;48.206;16.340;2023-02-17T03:40:26;99983.72;;;11.72;40.21
16331;BME280;8275;48.206;16.340;2023-02-17T03:42:55;99977.53;;;11.76;40.38
16331;BME280;8275;48.206;16.340;2023-02-17T03:45:24;99975.13;;;11.80;40.33
16331;BME280;8275;48.206;16.340;2023-02-17T03:47:53;99969.72;;;11.85;40.16
16331;BME280;8275;48.206;16.340;2023-02-17T03:50:21;99969.22;;;11.88;40.66
16331;BME280;8275;48.206;16.340;2023-02-17T03:52:51;99983.28;;;11.91;40.10
16331;BME280;8275;48.206;16.340;2023-02-17T03:55:19;99985.03;;;11.97;40.34
16331;BME280;8275;48.206;16.340;2023-02-17T03:57:48;99980.22;;;12.05;39.86
16331;BME280;8275;48.206;16.340;2023-02-17T04:00:17;99978.72;;;12.14;39.71
16331;BME280;8275;48.206;16.340;2023-02-17T04:02:46;99976.25;;;12.29;39.25
16331;BME280;8275;48.206;16.340;2023-02-17T04:05:15;99952.56;;;12.44;39.02
16331;BME280;8275;48.206;16.340;2023-02-17T04:07:43;99969.94;;;12.66;38.56
16331;BME280;8275;48.206;16.340;2023-02-17T04:10:13;99969.13;;;12.88;37.82
16331;BME280;8275;48.206;16.340;2023-02-17T04:12:41;99981.84;;;13.10;37.98
16331;BME280;8275;48.206;16.340;2023-02-17T04:15:10;99965.59;;;13.30;37.29
16331;BME280;8275;48.206;16.340;2023-02-17T04:17:39;99974.59;;;13.48;37.15
16331;BME280;8275;48.206;16.340;2023-02-17T04:20:08;99979.19;;;13.64;37.06
16331;BME280;8275;48.206;16.340;2023-02-17T04:22:37;99970.00;;;13.80;36.80
16331;BME280;8275;48.206;16.340;2023-02-17T04:25:06;99966.22;;;13.91;36.77
16331;BME280;8275;48.206;16.340;2023-02-17T04:27:36;99952.00;;;13.99;36.68
16331;BME280;8275;48.206;16.340;2023-02-17T04:30:06;99954.53;;;14.05;36.65
16331;BME280;8275;48.206;16.340;2023-02-17T04:32:38;99955.16;;;14.13;36.46
16331;BME280;8275;48.206;16.340;2023-02-17T04:35:07;99943.06;;;14.19;36.17
16331;BME280;8275;48.206;16.340;2023-02-17T04:37:35;99946.44;;;14.26;35.83
16331;BME280;8275;48.206;16.340;2023-02-17T04:40:06;99939.06;;;14.31;35.96
16331;BME280;8275;48.206;16.340;2023-02-17T04:42:38;99931.66;;;14.37;35.80
16331;BME280;8275;48.206;16.340;2023-02-17T04:45:07;99943.84;;;14.41;35.94
16331;BME280;8275;48.206;16.340;2023-02-17T04:47:36;99945.78;;;14.45;35.80
16331;BME280;8275;48.206;16.340;2023-02-17T04:50:08;99935.88;;;14.49;35.64
16331;BME280;8275;48.206;16.340;2023-02-17T04:52:37;99943.38;;;14.54;35.61
16331;BME280;8275;48.206;16.340;2023-02-17T04:55:07;99940.88;;;14.57;35.44
16331;BME280;8275;48.206;16.340;2023-02-17T04:57:37;99946.72;;;14.61;35.44
16331;BME280;8275;48.206;16.340;2023-02-17T05:00:07;99937.34;;;14.62;35.11
16331;BME280;8275;48.206;16.340;2023-02-17T05:02:36;99942.31;;;14.65;35.12
16331;BME280;8275;48.206;16.340;2023-02-17T05:05:06;99940.13;;;14.67;34.82
16331;BME280;8275;48.206;16.340;2023-02-17T05:07:34;99933.53;;;14.68;34.80
16331;BME280;8275;48.206;16.340;2023-02-17T05:10:04;99930.78;;;14.68;34.87
16331;BME280;8275;48.206;16.340;2023-02-17T05:12:32;99942.09;;;14.66;34.78
16331;BME280;8275;48.206;16.340;2023-02-17T05:15:04;99932.66;;;14.62;34.55
16331;BME280;8275;48.206;16.340;2023-02-17T05:17:33;99938.72;;;14.59;34.41
16331;BME280;8275;48.206;16.340;2023-02-17T05:20:01;99929.56;;;14.54;34.09
16331;BME280;8275;48.206;16.340;2023-02-17T05:22:30;99922.94;;;14.50;34.24
16331;BME280;8275;48.206;16.340;2023-02-17T05:24:59;99916.56;;;14.44;34.36
16331;BME280;8275;48.206;16.340;2023-02-17T05:27:27;99909.09;;;14.40;34.45
16331;BME280;8275;48.206;16.340;2023-02-17T05:29:56;99909.88;;;14.35;34.27
16331;BME280;8275;48.206;16.340;2023-02-17T05:32:26;99903.25;;;14.31;34.40
16331;BME280;8275;48.206;16.340;2023-02-17T05:34:54;99902.09;;;14.27;34.47
16331;BME280;8275;48.206;16.340;2023-02-17T05:37:23;99902.88;;;14.23;34.41
16331;BME280;8275;48.206;16.340;2023-02-17T05:39:51;99895.13;;;14.20;34.39
16331;BME280;8275;48.206;16.340;2023-02-17T05:42:19;99895.66;;;14.17;34.27
16331;BME280;8275;48.206;16.340;2023-02-17T05:44:48;99894.56;;;14.18;34.42
16331;BME280;8275;48.206;16.340;2023-02-17T05:47:16;99900.94;;;14.18;34.47
16331;BME280;8275;48.206;16.340;2023-02-17T05:49:46;99904.25;;;14.20;34.36
16331;BME280;8275;48.206;16.340;2023-02-17T05:52:15;99907.28;;;14.24;34.47
16331;BME280;8275;48.206;16.340;2023-02-17T05:54:44;99896.31;;;14.29;34.40
16331;BME280;8275;48.206;16.340;2023-02-17T05:57:12;99899.97;;;14.34;34.31
16331;BME280;8275;48.206;16.340;2023-02-17T05:59:41;99893.09;;;14.42;34.37
16331;BME280;8275;48.206;16.340;2023-02-17T06:02:09;99898.13;;;14.50;34.48
16331;BME280;8275;48.206;16.340;2023-02-17T06:04:38;99900.13;;;14.59;34.24
16331;BME280;8275;48.206;16.340;2023-02-17T06:07:08;99901.28;;;14.68;34.27
16331;BME280;8275;48.206;16.340;2023-02-17T06:09:36;99907.38;;;14.75;34.16
16331;BME280;8275;48.206;16.340;2023-02-17T06:12:05;99911.28;;;14.85;33.46
16331;BME280;8275;48.206;16.340;2023-02-17T06:14:33;99909.66;;;14.94;33.53
16331;BME280;8275;48.206;16.340;2023-02-17T06:17:02;99906.38;;;15.02;33.15
16331;BME280;8275;48.206;16.340;2023-02-17T06:19:31;99911.94;;;15.12;32.88
16331;BME280;8275;48.206;16.340;2023-02-17T06:21:59;99913.91;;;15.21;32.69
16331;BME280;8275;48.206;16.340;2023-02-17T06:24:29;99915.31;;;15.29;32.45
16331;BME280;8275;48.206;16.340;2023-02-17T06:26:58;99914.78;;;15.37;32.64
16331;BME280;8275;48.206;16.340;2023-02-17T06:29:26;99915.09;;;15.45;32.82
16331;BME280;8275;48.206;16.340;2023-02-17T06:31:55;99922.03;;;15.53;32.74
16331;BME280;8275;48.206;16.340;2023-02-17T06:34:24;99922.31;;;15.57;32.32
16331;BME280;8275;48.206;16.340;2023-02-17T06:36:52;99916.25;;;15.60;32.33
16331;BME280;8275;48.206;16.340;2023-02-17T06:39:22;99909.06;;;15.59;31.59
16331;BME280;8275;48.206;16.340;2023-02-17T06:41:51;99905.19;;;15.60;31.72
16331;BME280;8275;48.206;16.340;2023-02-17T06:44:20;99906.88;;;15.61;31.82
16331;BME280;8275;48.206;16.340;2023-02-17T06:46:48;99903.00;;;15.62;31.91
16331;BME280;8275;48.206;16.340;2023-02-17T06:49:17;99900.22;;;15.62;31.99
16331;BME280;8275;48.206;16.340;2023-02-17T06:51:45;99896.63;;;15.61;31.96
16331;BME280;8275;48.206;16.340;2023-02-17T06:54:14;99904.38;;;15.59;31.51
16331;BME280;8275;48.206;16.340;2023-02-17T06:56:42;99906.28;;;15.59;31.79
16331;BME280;8275;48.206;16.340;2023-02-17T06:59:12;99899.97;;;15.58;31.87
16331;BME280;8275;48.206;16.340;2023-02-17T07:01:41;99891.41;;;15.60;31.93
16331;BME280;8275;48.206;16.340;2023-02-17T07:04:09;99893.06;;;15.61;31.88
16331;BME280;8275;48.206;16.340;2023-02-17T07:06:37;99895.81;;;15.61;31.99
16331;BME280;8275;48.206;16.340;2023-02-17T07:09:06;99899.97;;;15.63;31.98
16331;BME280;8275;48.206;16.340;2023-02-17T07:11:34;99888.66;;;15.65;32.20
16331;BME280;8275;48.206;16.340;2023-02-17T07:14:03;99900.25;;;15.67;32.13
16331;BME280;8275;48.206;16.340;2023-02-17T07:16:33;99900.78;;;15.69;32.16
16331;BME280;8275;48.206;16.340;2023-02-17T07:19:01;99889.47;;;15.70;32.34
16331;BME280;8275;48.206;16.340;2023-02-17T07:21:30;99883.94;;;15.75;32.51
16331;BME280;8275;48.206;16.340;2023-02-17T07:23:58;99873.75;;;15.81;32.32
16331;BME280;8275;48.206;16.340;2023-02-17T07:26:27;99875.69;;;15.85;32.29
16331;BME280;8275;48.206;16.340;2023-02-17T07:28:55;99888.66;;;15.90;32.31
16331;BME280;8275;48.206;16.340;2023-02-17T07:31:24;99879.84;;;15.93;32.37
16331;BME280;8275;48.206;16.340;2023-02-17T07:33:54;99888.38;;;15.96;32.23
16331;BME280;8275;48.206;16.340;2023-02-17T07:36:22;99879.53;;;15.99;32.15
16331;BME280;8275;48.206;16.340;2023-02-17T07:38:50;99887.25;;;16.02;32.32
16331;BME280;8275;48.206;16.340;2023-02-17T07:41:23;99891.16;;;16.06;32.12
16331;BME280;8275;48.206;16.340;2023-02-17T07:43:55;99893.63;;;16.13;32.15
16331;BME280;8275;48.206;16.340;2023-02-17T07:46:25;99892.81;;;16.17;32.00
16331;BME280;8275;48.206;16.340;2023-02-17T07:48:57;99902.47;;;16.25;31.99
16331;BME280;8275;48.206;16.340;2023-02-17T07:51:26;99908.25;;;16.34;32.04
16331;BME280;8275;48.206;16.340;2023-02-17T07:53:54;99896.91;;;16.40;31.96
16331;BME280;8275;48.206;16.340;2023-02-17T07:56:23;99900.78;;;16.44;31.86
16331;BME280;8275;48.206;16.340;2023-02-17T07:58:52;99899.38;;;16.47;32.04
16331;BME280;8275;48.206;16.340;2023-02-17T08:01:22;99899.66;;;16.50;31.89
16331;BME280;8275;48.206;16.340;2023-02-17T08:03:52;99893.88;;;16.52;32.11
16331;BME280;8275;48.206;16.340;2023-02-17T08:06:24;99886.41;;;16.52;31.91
16331;BME280;8275;48.206;16.340;2023-02-17T08:08:53;99890.03;;;16.53;31.99
16331;BME280;8275;48.206;16.340;2023-02-17T08:11:40;99894.69;;;16.47;32.04
16331;BME280;8275;48.206;16.340;2023-02-17T08:14:28;99894.16;;;16.40;31.87
16331;BME280;8275;48.206;16.340;2023-02-17T08:16:57;99899.97;;;16.39;32.11
16331;BME280;8275;48.206;16.340;2023-02-17T08:19:26;99896.06;;;16.40;32.01
16331;BME280;8275;48.206;16.340;2023-02-17T08:22:14;99893.84;;;16.42;32.27
16331;BME280;8275;48.206;16.340;2023-02-17T08:24:42;99903.00;;;16.52;32.40
16331;BME280;8275;48.206;16.340;2023-02-17T08:27:11;99895.78;;;16.66;32.67
16331;BME280;8275;48.206;16.340;2023-02-17T08:29:41;99900.16;;;16.82;33.01
16331;BME280;8275;48.206;16.340;2023-02-17T08:32:10;99894.28;;;16.99;33.12
16331;BME280;8275;48.206;16.340;2023-02-17T08:34:39;99883.97;;;17.15;33.05
16331;BME280;8275;48.206;16.340;2023-02-17T08:37:09;99879.19;;;17.30;33.27
16331;BME280;8275;48.206;16.340;2023-02-17T08:39:39;99870.78;;;17.45;33.17
16331;BME280;8275;48.206;16.340;2023-02-17T08:42:07;99881.81;;;17.61;33.26
16331;BME280;8275;48.206;16.340;2023-02-17T08:44:37;99869.22;;;17.73;33.15
16331;BME280;8275;48.206;16.340;2023-02-17T08:47:06;99868.84;;;17.85;33.12
16331;BME280;8275;48.206;16.340;2023-02-17T08:49:36;99870.19;;;17.92;33.21
16331;BME280;8275;48.206;16.340;2023-02-17T08:52:05;99861.00;;;17.97;33.28
16331;BME280;8275;48.206;16.340;2023-02-17T08:54:34;99874.28;;;18.00;33.37
16331;BME280;8275;48.206;16.340;2023-02-17T08:57:03;99872.31;;;18.00;33.29
16331;BME280;8275;48.206;16.340;2023-02-17T08:59:32;99871.53;;;18.00;33.00
16331;BME280;8275;48.206;16.340;2023-02-17T09:02:01;99878.47;;;17.97;33.25
16331;BME280;8275;48.206;16.340;2023-02-17T09:04:29;99874.34;;;17.95;33.47
16331;BME280;8275;48.206;16.340;2023-02-17T09:06:58;99882.13;;;17.93;33.64
16331;BME280;8275;48.206;16.340;2023-02-17T09:09:27;99882.38;;;17.91;33.78
16331;BME280;8275;48.206;16.340;2023-02-17T09:11:57;99873.84;;;17.88;33.95
16331;BME280;8275;48.206;16.340;2023-02-17T09:14:27;99878.84;;;17.86;34.07
16331;BME280;8275;48.206;16.340;2023-02-17T09:16:56;99865.81;;;17.86;34.56
16331;BME280;8275;48.206;16.340;2023-02-17T09:19:25;99873.31;;;17.86;35.76
16331;BME280;8275;48.206;16.340;2023-02-17T09:21:55;99876.09;;;17.81;37.03
16331;BME280;8275;48.206;16.340;2023-02-17T09:24:23;99881.78;;;17.66;37.79
16331;BME280;8275;48.206;16.340;2023-02-17T09:26:52;99877.97;;;17.46;38.27
16331;BME280;8275;48.206;16.340;2023-02-17T09:29:20;99863.72;;;17.24;38.67
16331;BME280;8275;48.206;16.340;2023-02-17T09:31:50;99871.78;;;17.11;38.86
16331;BME280;8275;48.206;16.340;2023-02-17T09:34:19;99861.34;;;16.98;39.02
16331;BME280;8275;48.206;16.340;2023-02-17T09:36:48;99864.72;;;16.90;39.24
16331;BME280;8275;48.206;16.340;2023-02-17T09:39:17;99861.44;;;16.82;40.32
16331;BME280;8275;48.206;16.340;2023-02-17T09:41:48;99855.91;;;16.77;40.71
16331;BME280;8275;48.206;16.340;2023-02-17T09:44:21;99857.59;;;16.73;41.40
16331;BME280;8275;48.206;16.340;2023-02-17T09:46:58;99848.47;;;16.68;42.03
16331;BME280;8275;48.206;16.340;2023-02-17T09:49:35;99846.31;;;16.60;43.15
16331;BME280;8275;48.206;16.340;2023-02-17T09:52:12;99854.06;;;16.53;43.65
16331;BME280;8275;48.206;16.340;2023-02-17T09:54:52;99853.75;;;16.44;44.83
16331;BME280;8275;48.206;16.340;2023-02-17T09:57:29;99853.22;;;16.37;45.17
16331;BME280;8275;48.206;16.340;2023-02-17T10:00:08;99843.56;;;16.30;45.94
16331;BME280;8275;48.206;16.340;2023-02-17T10:02:46;99846.06;;;16.26;46.41
16331;BME280;8275;48.206;16.340;2023-02-17T10:05:22;99846.34;;;16.25;47.00
16331;BME280;8275;48.206;16.340;2023-02-17T10:07:56;99863.78;;;16.20;47.25
16331;BME280;8275;48.206;16.340;2023-02-17T10:10:34;99848.28;;;16.19;47.43
16331;BME280;8275;48.206;16.340;2023-02-17T10:13:05;99852.16;;;16.18;48.03
16331;BME280;8275;48.206;16.340;2023-02-17T10:15:40;99840.00;;;16.14;47.88
16331;BME280;8275;48.206;16.340;2023-02-17T10:18:16;99834.75;;;16.12;47.67
16331;BME280;8275;48.206;16.340;2023-02-17T10:20:51;99853.56;;;16.05;48.06
16331;BME280;8275;48.206;16.340;2023-02-17T10:23:25;99843.63;;;15.99;47.66
16331;BME280;8275;48.206;16.340;2023-02-17T10:26:07;99831.19;;;15.92;47.73
16331;BME280;8275;48.206;16.340;2023-02-17T10:28:50;99815.69;;;15.91;47.84
16331;BME280;8275;48.206;16.340;2023-02-17T10:31:41;99816.53;;;15.86;47.67
16331;BME280;8275;48.206;16.340;2023-02-17T10:34:23;99799.41;;;15.84;47.15
16331;BME280;8275;48.206;16.340;2023-02-17T10:37:00;99810.19;;;15.81;46.84
16331;BME280;8275;48.206;16.340;2023-02-17T10:39:43;99794.16;;;15.78;46.52
16331;BME280;8275;48.206;16.340;2023-02-17T10:42:21;99790.56;;;15.77;46.18
16331;BME280;8275;48.206;16.340;2023-02-17T10:44:57;99790.56;;;15.77;46.26
16331;BME280;8275;48.206;16.340;2023-02-17T10:47:27;99804.69;;;15.81;45.95
16331;BME280;8275;48.206;16.340;2023-02-17T10:49:59;99811.03;;;15.81;45.54
16331;BME280;8275;48.206;16.340;2023-02-17T10:52:35;99789.47;;;15.83;45.20
16331;BME280;8275;48.206;16.340;2023-02-17T10:55:08;99791.94;;;15.85;44.75
16331;BME280;8275;48.206;16.340;2023-02-17T10:57:57;99788.34;;;15.84;44.44
16331;BME280;8275;48.206;16.340;2023-02-17T11:00:28;99791.13;;;15.89;44.03
16331;BME280;8275;48.206;16.340;2023-02-17T11:02:57;99782.81;;;15.94;43.54
16331;BME280;8275;48.206;16.340;2023-02-17T11:05:30;99767.34;;;15.98;43.33
16331;BME280;8275;48.206;16.340;2023-02-17T11:08:05;99767.88;;;16.05;42.91
16331;BME280;8275;48.206;16.340;2023-02-17T11:10:37;99774.22;;;16.16;42.19
16331;BME280;8275;48.206;16.340;2023-02-17T11:13:31;99762.56;;;16.24;42.02
16331;BME280;8275;48.206;16.340;2023-02-17T11:16:01;99755.34;;;16.38;41.74
16331;BME280;8275;48.206;16.340;2023-02-17T11:18:32;99769.41;;;16.52;41.32
16331;BME280;8275;48.206;16.340;2023-02-17T11:21:07;99753.59;;;16.62;41.21
16331;BME280;8275;48.206;16.340;2023-02-17T11:23:48;99747.72;;;16.74;40.52
16331;BME280;8275;48.206;16.340;2023-02-17T11:26:24;99720.53;;;16.86;40.22
16331;BME280;8275;48.206;16.340;2023-02-17T11:28:53;99730.19;;;16.94;39.53
16331;BME280;8275;48.206;16.340;2023-02-17T11:31:24;99725.16;;;17.01;39.05
16331;BME280;8275;48.206;16.340;2023-02-17T11:33:54;99722.91;;;17.08;39.00
16331;BME280;8275;48.206;16.340;2023-02-17T11:36:28;99740.00;;;17.15;39.01
16331;BME280;8275;48.206;16.340;2023-02-17T11:38:57;99737.19;;;17.20;38.07
16331;BME280;8275;48.206;16.340;2023-02-17T11:41:36;99723.06;;;17.21;38.10
16331;BME280;8275;48.206;16.340;2023-02-17T11:44:08;99725.81;;;17.26;37.62
16331;BME280;8275;48.206;16.340;2023-02-17T11:46:45;99724.09;;;17.30;37.94
16331;BME280;8275;48.206;16.340;2023-02-17T11:50:16;99713.56;;;17.32;37.80
16331;BME280;8275;48.206;16.340;2023-02-17T11:53:22;99719.28;;;17.41;37.71
16331;BME280;8275;48.206;16.340;2023-02-17T11:56:09;99705.69;;;17.49;38.33
16331;BME280;8275;48.206;16.340;2023-02-17T12:02:03;99681.97;;;17.67;37.91
16331;BME280;8275;48.206;16.340;2023-02-17T12:04:39;99684.09;;;17.75;37.86
16331;BME280;8275;48.206;16.340;2023-02-17T12:07:52;99688.19;;;17.83;38.12
16331;BME280;8275;48.206;16.340;2023-02-17T12:10:48;99688.66;;;17.90;37.75
16331;BME280;8275;48.206;16.340;2023-02-17T12:13:31;99684.69;;;17.96;37.50
16331;BME280;8275;48.206;16.340;2023-02-17T12:16:27;99686.06;;;17.98;37.72
16331;BME280;8275;48.206;16.340;2023-02-17T12:19:18;99675.22;;;18.02;37.84
16331;BME280;8275;48.206;16.340;2023-02-17T12:22:01;99677.94;;;18.07;37.72
16331;BME280;8275;48.206;16.340;2023-02-17T12:24:50;99690.09;;;18.11;37.26
16331;BME280;8275;48.206;16.340;2023-02-17T12:27:37;99683.94;;;18.14;37.72
16331;BME280;8275;48.206;16.340;2023-02-17T12:30:22;99679.16;;;18.19;37.71
16331;BME280;8275;48.206;16.340;2023-02-17T12:33:29;99674.38;;;18.25;37.48
16331;BME280;8275;48.206;16.340;2023-02-17T12:36:07;99685.31;;;18.35;37.72
16331;BME280;8275;48.206;16.340;2023-02-17T12:38:41;99685.50;;;18.44;37.51
16331;BME280;8275;48.206;16.340;2023-02-17T12:41:17;99692.66;;;18.50;37.45
16331;BME280;8275;48.206;16.340;2023-02-17T12:43:52;99689.59;;;18.51;37.18
16331;BME280;8275;48.206;16.340;2023-02-17T12:46:26;99686.00;;;18.51;37.16
16331;BME280;8275;48.206;16.340;2023-02-17T12:48:59;99683.50;;;18.49;37.08
16331;BME280;8275;48.206;16.340;2023-02-17T12:51:36;99679.91;;;18.49;37.35
16331;BME280;8275;48.206;16.340;2023-02-17T12:54:12;99669.63;;;18.49;37.35
16331;BME280;8275;48.206;16.340;2023-02-17T12:56:57;99662.97;;;18.50;37.40
16331;BME280;8275;48.206;16.340;2023-02-17T12:59:33;99665.44;;;18.52;37.49
16331;BME280;8275;48.206;16.340;2023-02-17T13:02:05;99653.44;;;18.56;37.35
16331;BME280;8275;48.206;16.340;2023-02-17T13:04:34;99652.03;;;18.59;37.48
16331;BME280;8275;48.206;16.340;2023-02-17T13:07:31;99647.06;;;18.56;37.34
16331;BME280;8275;48.206;16.340;2023-02-17T13:10:06;99632.91;;;18.57;37.31
16331;BME280;8275;48.206;16.340;2023-02-17T13:12:39;99647.00;;;18.61;37.27
16331;BME280;8275;48.206;16.340;2023-02-17T13:15:35;99628.78;;;18.55;37.39
16331;BME280;8275;48.206;16.340;2023-02-17T13:18:09;99630.72;;;18.54;37.50
16331;BME280;8275;48.206;16.340;2023-02-17T13:20:55;99637.41;;;18.53;37.72
16331;BME280;8275;48.206;16.340;2023-02-17T13:23:37;99636.81;;;18.56;37.72
16331;BME280;8275;48.206;16.340;2023-02-17T13:29:32;99610.94;;;18.61;38.06
16331;BME280;8275;48.206;16.340;2023-02-17T13:32:05;99628.03;;;18.68;37.92
16331;BME280;8275;48.206;16.340;2023-02-17T13:34:37;99631.56;;;18.73;37.80
16331;BME280;8275;48.206;16.340;2023-02-17T13:37:22;99616.34;;;18.71;37.76
16331;BME280;8275;48.206;16.340;2023-02-17T13:39:52;99629.91;;;18.72;37.76